sensor_id;sensor_type;location;lat;lon;timestamp;P1;durP1;ratioP1;P2;durP2;ratioP2
28174;SDS011;59417;44.788;10.334;2022-08-02T00:01:51;3.10;;;2.00;;
28174;SDS011;59417;44.788;10.334;2022-08-02T00:04:20;3.67;;;2.13;;
28174;SDS011;59417;44.788;10.334;2022-08-02T00:06:49;2.55;;;2.30;;
28174;SDS011;59417;44.788;10.334;2022-08-02T00:09:15;2.70;;;2.17;;
28174;SDS011;59417;44.788;10.334;2022-08-02T00:11:40;2.33;;;2.05;;
28174;SDS011;59417;44.788;10.334;2022-08-02T00:14:06;2.95;;;2.38;;
28174;SDS011;59417;44.788;10.334;2022-08-02T00:16:32;2.95;;;1.75;;
28174;SDS011;59417;44.788;10.334;2022-08-02T00:18:57;3.90;;;2.55;;
28174;SDS011;59417;44.788;10.334;2022-08-02T00:21:23;4.45;;;2.25;;
28174;SDS011;59417;44.788;10.334;2022-08-02T00:23:51;4.60;;;2.40;;
28174;SDS011;59417;44.788;10.334;2022-08-02T00:26:16;5.50;;;2.00;;
28174;SDS011;59417;44.788;10.334;2022-08-02T00:28:42;2.78;;;2.00;;
28174;SDS011;59417;44.788;10.334;2022-08-02T00:31:08;2.55;;;2.13;;
28174;SDS011;59417;44.788;10.334;2022-08-02T00:33:34;2.33;;;2.13;;
28174;SDS011;59417;44.788;10.334;2022-08-02T00:36:00;4.07;;;2.28;;
28174;SDS011;59417;44.788;10.334;2022-08-02T00:38:25;3.00;;;2.42;;
28174;SDS011;59417;44.788;10.334;2022-08-02T00:40:51;5.22;;;2.17;;
28174;SDS011;59417;44.788;10.334;2022-08-02T00:43:17;2.40;;;2.20;;
28174;SDS011;59417;44.788;10.334;2022-08-02T00:45:43;3.85;;;2.35;;
28174;SDS011;59417;44.788;10.334;2022-08-02T00:48:09;2.40;;;2.20;;
28174;SDS011;59417;44.788;10.334;2022-08-02T00:50:36;3.10;;;1.88;;
28174;SDS011;59417;44.788;10.334;2022-08-02T00:53:03;2.40;;;2.00;;
28174;SDS011;59417;44.788;10.334;2022-08-02T00:55:29;3.35;;;2.22;;
28174;SDS011;59417;44.788;10.334;2022-08-02T00:57:55;6.45;;;2.10;;
28174;SDS011;59417;44.788;10.334;2022-08-02T01:00:21;4.55;;;2.72;;
28174;SDS011;59417;44.788;10.334;2022-08-02T01:02:47;3.58;;;2.10;;
28174;SDS011;59417;44.788;10.334;2022-08-02T01:05:13;3.00;;;2.35;;
28174;SDS011;59417;44.788;10.334;2022-08-02T01:07:39;4.45;;;2.40;;
28174;SDS011;59417;44.788;10.334;2022-08-02T01:10:06;2.65;;;2.42;;
28174;SDS011;59417;44.788;10.334;2022-08-02T01:12:32;2.78;;;2.50;;
28174;SDS011;59417;44.788;10.334;2022-08-02T01:14:59;2.50;;;2.30;;
28174;SDS011;59417;44.788;10.334;2022-08-02T01:25:28;5.10;;;3.67;;
28174;SDS011;59417;44.788;10.334;2022-08-02T01:31:07;6.10;;;3.28;;
28174;SDS011;59417;44.788;10.334;2022-08-02T01:33:42;6.75;;;3.50;;
28174;SDS011;59417;44.788;10.334;2022-08-02T01:36:12;5.65;;;3.63;;
28174;SDS011;59417;44.788;10.334;2022-08-02T01:38:42;5.45;;;3.90;;
28174;SDS011;59417;44.788;10.334;2022-08-02T01:41:14;6.40;;;3.90;;
28174;SDS011;59417;44.788;10.334;2022-08-02T01:43:43;7.40;;;4.47;;
28174;SDS011;59417;44.788;10.334;2022-08-02T01:46:12;7.03;;;4.65;;
28174;SDS011;59417;44.788;10.334;2022-08-02T01:48:43;7.82;;;4.78;;
28174;SDS011;59417;44.788;10.334;2022-08-02T01:51:14;5.60;;;4.30;;
28174;SDS011;59417;44.788;10.334;2022-08-02T01:53:41;7.23;;;5.30;;
28174;SDS011;59417;44.788;10.334;2022-08-02T01:56:10;10.07;;;5.40;;
28174;SDS011;59417;44.788;10.334;2022-08-02T01:58:38;7.97;;;6.60;;
28174;SDS011;59417;44.788;10.334;2022-08-02T02:01:06;6.82;;;5.57;;
28174;SDS011;59417;44.788;10.334;2022-08-02T02:03:35;6.47;;;5.35;;
28174;SDS011;59417;44.788;10.334;2022-08-02T02:06:04;6.63;;;5.18;;
28174;SDS011;59417;44.788;10.334;2022-08-02T02:11:05;8.18;;;5.63;;
28174;SDS011;59417;44.788;10.334;2022-08-02T02:13:36;6.35;;;5.75;;
28174;SDS011;59417;44.788;10.334;2022-08-02T02:18:30;9.10;;;6.78;;
28174;SDS011;59417;44.788;10.334;2022-08-02T02:21:03;7.22;;;6.03;;
28174;SDS011;59417;44.788;10.334;2022-08-02T02:23:31;10.88;;;6.95;;
28174;SDS011;59417;44.788;10.334;2022-08-02T02:25:57;7.88;;;6.22;;
28174;SDS011;59417;44.788;10.334;2022-08-02T02:28:25;11.15;;;5.68;;
28174;SDS011;59417;44.788;10.334;2022-08-02T02:30:57;8.32;;;5.95;;
28174;SDS011;59417;44.788;10.334;2022-08-02T02:33:29;9.60;;;5.80;;
28174;SDS011;59417;44.788;10.334;2022-08-02T02:35:58;12.27;;;6.35;;
28174;SDS011;59417;44.788;10.334;2022-08-02T02:38:27;12.43;;;6.60;;
28174;SDS011;59417;44.788;10.334;2022-08-02T02:40:57;10.02;;;6.22;;
28174;SDS011;59417;44.788;10.334;2022-08-02T02:45:52;8.25;;;6.03;;
28174;SDS011;59417;44.788;10.334;2022-08-02T02:48:19;8.80;;;5.93;;
28174;SDS011;59417;44.788;10.334;2022-08-02T02:50:46;7.32;;;5.78;;
28174;SDS011;59417;44.788;10.334;2022-08-02T02:53:14;7.60;;;5.75;;
28174;SDS011;59417;44.788;10.334;2022-08-02T02:55:45;9.07;;;6.45;;
28174;SDS011;59417;44.788;10.334;2022-08-02T02:58:12;10.20;;;6.70;;
28174;SDS011;59417;44.788;10.334;2022-08-02T03:00:38;9.30;;;5.97;;
28174;SDS011;59417;44.788;10.334;2022-08-02T03:03:23;7.95;;;6.32;;
28174;SDS011;59417;44.788;10.334;2022-08-02T03:05:49;11.88;;;6.15;;
28174;SDS011;59417;44.788;10.334;2022-08-02T03:08:15;9.38;;;6.07;;
28174;SDS011;59417;44.788;10.334;2022-08-02T03:10:42;9.55;;;6.10;;
28174;SDS011;59417;44.788;10.334;2022-08-02T03:13:11;9.23;;;5.80;;
28174;SDS011;59417;44.788;10.334;2022-08-02T03:15:38;8.80;;;6.13;;
28174;SDS011;59417;44.788;10.334;2022-08-02T03:18:07;6.10;;;5.50;;
28174;SDS011;59417;44.788;10.334;2022-08-02T03:20:33;10.93;;;6.03;;
28174;SDS011;59417;44.788;10.334;2022-08-02T03:22:59;6.30;;;4.95;;
28174;SDS011;59417;44.788;10.334;2022-08-02T03:25:25;6.38;;;5.15;;
28174;SDS011;59417;44.788;10.334;2022-08-02T03:27:55;8.38;;;5.40;;
28174;SDS011;59417;44.788;10.334;2022-08-02T03:30:21;6.88;;;5.40;;
28174;SDS011;59417;44.788;10.334;2022-08-02T03:32:51;7.63;;;5.60;;
28174;SDS011;59417;44.788;10.334;2022-08-02T03:35:17;10.60;;;5.60;;
28174;SDS011;59417;44.788;10.334;2022-08-02T03:37:45;7.93;;;6.40;;
28174;SDS011;59417;44.788;10.334;2022-08-02T03:40:12;9.90;;;6.55;;
28174;SDS011;59417;44.788;10.334;2022-08-02T03:42:41;7.75;;;6.13;;
28174;SDS011;59417;44.788;10.334;2022-08-02T03:45:07;12.23;;;6.68;;
28174;SDS011;59417;44.788;10.334;2022-08-02T03:47:38;10.75;;;6.57;;
28174;SDS011;59417;44.788;10.334;2022-08-02T03:50:06;6.97;;;6.30;;
28174;SDS011;59417;44.788;10.334;2022-08-02T03:52:32;7.65;;;6.85;;
28174;SDS011;59417;44.788;10.334;2022-08-02T03:55:00;7.72;;;6.93;;
28174;SDS011;59417;44.788;10.334;2022-08-02T03:57:26;11.10;;;7.25;;
28174;SDS011;59417;44.788;10.334;2022-08-02T03:59:51;8.82;;;7.20;;
28174;SDS011;59417;44.788;10.334;2022-08-02T04:02:20;9.80;;;7.47;;
28174;SDS011;59417;44.788;10.334;2022-08-02T04:04:46;10.68;;;7.30;;
28174;SDS011;59417;44.788;10.334;2022-08-02T04:07:11;11.10;;;7.28;;
28174;SDS011;59417;44.788;10.334;2022-08-02T04:09:40;10.43;;;7.10;;
28174;SDS011;59417;44.788;10.334;2022-08-02T04:12:06;11.18;;;7.43;;
28174;SDS011;59417;44.788;10.334;2022-08-02T04:14:33;8.95;;;6.10;;
28174;SDS011;59417;44.788;10.334;2022-08-02T04:17:00;11.90;;;7.60;;
28174;SDS011;59417;44.788;10.334;2022-08-02T04:19:45;8.32;;;6.32;;
28174;SDS011;59417;44.788;10.334;2022-08-02T04:22:22;6.25;;;5.22;;
28174;SDS011;59417;44.788;10.334;2022-08-02T04:25:04;7.10;;;5.50;;
28174;SDS011;59417;44.788;10.334;2022-08-02T04:27:31;8.50;;;5.43;;
28174;SDS011;59417;44.788;10.334;2022-08-02T04:30:01;10.45;;;5.80;;
28174;SDS011;59417;44.788;10.334;2022-08-02T04:32:28;6.88;;;4.82;;
28174;SDS011;59417;44.788;10.334;2022-08-02T04:34:55;9.48;;;4.82;;
28174;SDS011;59417;44.788;10.334;2022-08-02T04:37:21;5.88;;;4.68;;
28174;SDS011;59417;44.788;10.334;2022-08-02T04:39:47;5.53;;;3.83;;
28174;SDS011;59417;44.788;10.334;2022-08-02T04:42:23;8.82;;;3.58;;
28174;SDS011;59417;44.788;10.334;2022-08-02T04:44:50;5.30;;;3.03;;
28174;SDS011;59417;44.788;10.334;2022-08-02T04:47:16;6.28;;;2.97;;
28174;SDS011;59417;44.788;10.334;2022-08-02T04:49:42;8.02;;;2.83;;
28174;SDS011;59417;44.788;10.334;2022-08-02T04:52:08;10.38;;;2.90;;
28174;SDS011;59417;44.788;10.334;2022-08-02T04:54:34;6.53;;;2.75;;
28174;SDS011;59417;44.788;10.334;2022-08-02T04:56:59;9.90;;;2.30;;
28174;SDS011;59417;44.788;10.334;2022-08-02T04:59:25;6.20;;;2.72;;
28174;SDS011;59417;44.788;10.334;2022-08-02T05:01:51;10.63;;;2.30;;
28174;SDS011;59417;44.788;10.334;2022-08-02T05:04:17;6.18;;;2.03;;
28174;SDS011;59417;44.788;10.334;2022-08-02T05:06:42;8.65;;;2.50;;
28174;SDS011;59417;44.788;10.334;2022-08-02T05:09:08;6.85;;;2.33;;
28174;SDS011;59417;44.788;10.334;2022-08-02T05:11:34;10.70;;;2.50;;
28174;SDS011;59417;44.788;10.334;2022-08-02T05:14:00;7.70;;;2.42;;
28174;SDS011;59417;44.788;10.334;2022-08-02T05:16:26;7.85;;;2.75;;
28174;SDS011;59417;44.788;10.334;2022-08-02T05:18:52;3.45;;;2.08;;
28174;SDS011;59417;44.788;10.334;2022-08-02T05:21:17;6.78;;;2.22;;
28174;SDS011;59417;44.788;10.334;2022-08-02T05:23:43;6.88;;;2.38;;
28174;SDS011;59417;44.788;10.334;2022-08-02T05:26:09;6.72;;;2.28;;
28174;SDS011;59417;44.788;10.334;2022-08-02T05:28:35;8.73;;;2.25;;
28174;SDS011;59417;44.788;10.334;2022-08-02T05:31:00;7.82;;;2.30;;
28174;SDS011;59417;44.788;10.334;2022-08-02T05:33:26;9.05;;;2.67;;
28174;SDS011;59417;44.788;10.334;2022-08-02T05:35:52;8.27;;;2.47;;
28174;SDS011;59417;44.788;10.334;2022-08-02T05:38:17;7.00;;;2.20;;
28174;SDS011;59417;44.788;10.334;2022-08-02T05:40:43;5.30;;;2.53;;
28174;SDS011;59417;44.788;10.334;2022-08-02T05:43:12;18.40;;;2.58;;
28174;SDS011;59417;44.788;10.334;2022-08-02T05:45:39;5.25;;;2.30;;
28174;SDS011;59417;44.788;10.334;2022-08-02T05:48:05;6.38;;;2.10;;
28174;SDS011;59417;44.788;10.334;2022-08-02T05:50:31;5.45;;;2.45;;
28174;SDS011;59417;44.788;10.334;2022-08-02T05:55:56;9.40;;;2.13;;
28174;SDS011;59417;44.788;10.334;2022-08-02T05:58:39;8.55;;;2.63;;
28174;SDS011;59417;44.788;10.334;2022-08-02T06:01:13;5.45;;;2.10;;
28174;SDS011;59417;44.788;10.334;2022-08-02T06:03:52;8.23;;;2.53;;
28174;SDS011;59417;44.788;10.334;2022-08-02T06:06:21;4.47;;;2.40;;
28174;SDS011;59417;44.788;10.334;2022-08-02T06:08:50;8.35;;;2.55;;
28174;SDS011;59417;44.788;10.334;2022-08-02T06:11:23;5.47;;;2.22;;
28174;SDS011;59417;44.788;10.334;2022-08-02T06:14:06;5.03;;;2.08;;
28174;SDS011;59417;44.788;10.334;2022-08-02T06:16:34;9.35;;;2.40;;
28174;SDS011;59417;44.788;10.334;2022-08-02T06:19:02;11.60;;;2.70;;
28174;SDS011;59417;44.788;10.334;2022-08-02T06:21:28;4.90;;;2.13;;
28174;SDS011;59417;44.788;10.334;2022-08-02T06:23:54;5.97;;;1.90;;
28174;SDS011;59417;44.788;10.334;2022-08-02T06:26:23;15.23;;;2.95;;
28174;SDS011;59417;44.788;10.334;2022-08-02T06:28:49;5.60;;;2.20;;
28174;SDS011;59417;44.788;10.334;2022-08-02T06:31:17;8.88;;;2.53;;
28174;SDS011;59417;44.788;10.334;2022-08-02T06:33:43;6.30;;;2.22;;
28174;SDS011;59417;44.788;10.334;2022-08-02T06:39:03;6.85;;;2.15;;
28174;SDS011;59417;44.788;10.334;2022-08-02T06:41:40;6.55;;;2.15;;
28174;SDS011;59417;44.788;10.334;2022-08-02T06:44:13;3.05;;;2.35;;
28174;SDS011;59417;44.788;10.334;2022-08-02T06:46:39;5.88;;;2.15;;
28174;SDS011;59417;44.788;10.334;2022-08-02T06:49:06;3.80;;;2.05;;
28174;SDS011;59417;44.788;10.334;2022-08-02T06:51:32;3.45;;;1.83;;
28174;SDS011;59417;44.788;10.334;2022-08-02T06:53:58;10.50;;;2.28;;
28174;SDS011;59417;44.788;10.334;2022-08-02T06:56:24;9.68;;;2.22;;
28174;SDS011;59417;44.788;10.334;2022-08-02T06:58:49;5.65;;;1.92;;
28174;SDS011;59417;44.788;10.334;2022-08-02T07:01:16;4.57;;;2.22;;
28174;SDS011;59417;44.788;10.334;2022-08-02T07:03:43;9.65;;;2.17;;
28174;SDS011;59417;44.788;10.334;2022-08-02T07:06:09;6.22;;;2.47;;
28174;SDS011;59417;44.788;10.334;2022-08-02T07:08:35;6.70;;;2.33;;
28174;SDS011;59417;44.788;10.334;2022-08-02T07:11:03;5.78;;;2.17;;
28174;SDS011;59417;44.788;10.334;2022-08-02T07:13:30;3.65;;;2.47;;
28174;SDS011;59417;44.788;10.334;2022-08-02T07:15:56;7.10;;;2.25;;
28174;SDS011;59417;44.788;10.334;2022-08-02T07:18:22;7.93;;;2.20;;
28174;SDS011;59417;44.788;10.334;2022-08-02T07:20:48;8.02;;;2.35;;
28174;SDS011;59417;44.788;10.334;2022-08-02T07:23:14;4.97;;;2.60;;
28174;SDS011;59417;44.788;10.334;2022-08-02T07:25:40;5.85;;;2.10;;
28174;SDS011;59417;44.788;10.334;2022-08-02T07:28:08;5.63;;;1.92;;
28174;SDS011;59417;44.788;10.334;2022-08-02T07:30:34;5.45;;;2.13;;
28174;SDS011;59417;44.788;10.334;2022-08-02T07:33:00;4.95;;;2.03;;
28174;SDS011;59417;44.788;10.334;2022-08-02T07:35:26;5.97;;;2.08;;
28174;SDS011;59417;44.788;10.334;2022-08-02T07:37:52;6.15;;;2.25;;
28174;SDS011;59417;44.788;10.334;2022-08-02T07:40:18;5.13;;;2.33;;
28174;SDS011;59417;44.788;10.334;2022-08-02T07:42:44;6.38;;;2.05;;
28174;SDS011;59417;44.788;10.334;2022-08-02T07:45:11;1.65;;;1.38;;
28174;SDS011;59417;44.788;10.334;2022-08-02T07:47:38;6.32;;;1.95;;
28174;SDS011;59417;44.788;10.334;2022-08-02T07:50:05;4.05;;;2.05;;
28174;SDS011;59417;44.788;10.334;2022-08-02T07:52:31;5.88;;;1.95;;
28174;SDS011;59417;44.788;10.334;2022-08-02T07:54:57;7.95;;;1.90;;
28174;SDS011;59417;44.788;10.334;2022-08-02T07:57:22;7.72;;;2.10;;
28174;SDS011;59417;44.788;10.334;2022-08-02T07:59:49;4.80;;;1.90;;
28174;SDS011;59417;44.788;10.334;2022-08-02T08:02:16;5.28;;;2.00;;
28174;SDS011;59417;44.788;10.334;2022-08-02T08:04:41;6.65;;;1.92;;
28174;SDS011;59417;44.788;10.334;2022-08-02T08:07:07;3.38;;;1.73;;
28174;SDS011;59417;44.788;10.334;2022-08-02T08:09:36;5.22;;;2.22;;
28174;SDS011;59417;44.788;10.334;2022-08-02T08:12:12;6.25;;;2.80;;
28174;SDS011;59417;44.788;10.334;2022-08-02T08:14:39;5.35;;;2.25;;
28174;SDS011;59417;44.788;10.334;2022-08-02T08:17:05;7.65;;;2.10;;
28174;SDS011;59417;44.788;10.334;2022-08-02T08:19:31;6.43;;;2.40;;
28174;SDS011;59417;44.788;10.334;2022-08-02T08:21:56;4.38;;;1.90;;
28174;SDS011;59417;44.788;10.334;2022-08-02T08:24:27;8.20;;;2.28;;
28174;SDS011;59417;44.788;10.334;2022-08-02T08:26:53;5.37;;;2.60;;
28174;SDS011;59417;44.788;10.334;2022-08-02T08:29:19;8.13;;;2.25;;
28174;SDS011;59417;44.788;10.334;2022-08-02T08:31:45;5.60;;;2.22;;
28174;SDS011;59417;44.788;10.334;2022-08-02T08:34:11;3.70;;;1.70;;
28174;SDS011;59417;44.788;10.334;2022-08-02T08:36:38;7.80;;;2.00;;
28174;SDS011;59417;44.788;10.334;2022-08-02T08:39:04;6.22;;;1.80;;
28174;SDS011;59417;44.788;10.334;2022-08-02T08:41:30;4.28;;;2.50;;
28174;SDS011;59417;44.788;10.334;2022-08-02T08:43:55;3.40;;;1.90;;
28174;SDS011;59417;44.788;10.334;2022-08-02T08:46:25;3.55;;;1.70;;
28174;SDS011;59417;44.788;10.334;2022-08-02T08:48:53;3.83;;;1.88;;
28174;SDS011;59417;44.788;10.334;2022-08-02T08:51:27;2.63;;;1.77;;
28174;SDS011;59417;44.788;10.334;2022-08-02T08:53:55;6.03;;;1.73;;
28174;SDS011;59417;44.788;10.334;2022-08-02T08:56:28;4.95;;;2.30;;
28174;SDS011;59417;44.788;10.334;2022-08-02T08:58:57;1.98;;;1.70;;
28174;SDS011;59417;44.788;10.334;2022-08-02T09:01:23;3.50;;;1.95;;
28174;SDS011;59417;44.788;10.334;2022-08-02T09:03:49;5.20;;;2.03;;
28174;SDS011;59417;44.788;10.334;2022-08-02T09:06:14;4.10;;;1.73;;
28174;SDS011;59417;44.788;10.334;2022-08-02T09:08:40;5.18;;;1.70;;
28174;SDS011;59417;44.788;10.334;2022-08-02T09:11:13;6.75;;;1.83;;
28174;SDS011;59417;44.788;10.334;2022-08-02T09:13:53;6.45;;;1.92;;
28174;SDS011;59417;44.788;10.334;2022-08-02T09:16:32;4.55;;;1.65;;
28174;SDS011;59417;44.788;10.334;2022-08-02T09:18:59;8.05;;;1.80;;
28174;SDS011;59417;44.788;10.334;2022-08-02T09:21:32;10.00;;;1.83;;
28174;SDS011;59417;44.788;10.334;2022-08-02T09:24:00;6.30;;;1.70;;
28174;SDS011;59417;44.788;10.334;2022-08-02T09:26:26;3.85;;;1.88;;
28174;SDS011;59417;44.788;10.334;2022-08-02T09:28:58;3.13;;;1.52;;
28174;SDS011;59417;44.788;10.334;2022-08-02T09:31:26;4.18;;;1.60;;
28174;SDS011;59417;44.788;10.334;2022-08-02T09:33:55;5.50;;;1.77;;
28174;SDS011;59417;44.788;10.334;2022-08-02T09:36:22;4.82;;;1.58;;
28174;SDS011;59417;44.788;10.334;2022-08-02T09:38:53;4.32;;;1.52;;
28174;SDS011;59417;44.788;10.334;2022-08-02T09:41:30;4.72;;;2.03;;
28174;SDS011;59417;44.788;10.334;2022-08-02T09:43:57;4.95;;;1.83;;
28174;SDS011;59417;44.788;10.334;2022-08-02T09:46:25;7.68;;;1.77;;
28174;SDS011;59417;44.788;10.334;2022-08-02T09:51:24;6.07;;;2.13;;
28174;SDS011;59417;44.788;10.334;2022-08-02T09:53:55;3.25;;;1.55;;
28174;SDS011;59417;44.788;10.334;2022-08-02T09:58:50;6.35;;;2.55;;
28174;SDS011;59417;44.788;10.334;2022-08-02T10:01:19;1.85;;;1.30;;
28174;SDS011;59417;44.788;10.334;2022-08-02T10:04:02;6.45;;;1.92;;
28174;SDS011;59417;44.788;10.334;2022-08-02T10:06:29;2.10;;;1.60;;
28174;SDS011;59417;44.788;10.334;2022-08-02T10:08:55;3.38;;;1.98;;
28174;SDS011;59417;44.788;10.334;2022-08-02T10:11:21;4.60;;;1.95;;
28174;SDS011;59417;44.788;10.334;2022-08-02T10:13:48;3.95;;;1.55;;
28174;SDS011;59417;44.788;10.334;2022-08-02T10:16:15;3.45;;;1.70;;
28174;SDS011;59417;44.788;10.334;2022-08-02T10:18:42;5.55;;;2.05;;
28174;SDS011;59417;44.788;10.334;2022-08-02T10:21:12;6.22;;;1.80;;
28174;SDS011;59417;44.788;10.334;2022-08-02T10:23:41;2.78;;;1.60;;
28174;SDS011;59417;44.788;10.334;2022-08-02T10:26:07;4.38;;;1.80;;
28174;SDS011;59417;44.788;10.334;2022-08-02T10:28:34;4.28;;;1.80;;
28174;SDS011;59417;44.788;10.334;2022-08-02T10:31:01;3.20;;;1.73;;
28174;SDS011;59417;44.788;10.334;2022-08-02T10:33:29;4.03;;;1.90;;
28174;SDS011;59417;44.788;10.334;2022-08-02T10:35:57;2.13;;;1.40;;
28174;SDS011;59417;44.788;10.334;2022-08-02T10:38:24;4.88;;;1.88;;
28174;SDS011;59417;44.788;10.334;2022-08-02T10:40:51;3.67;;;1.40;;
28174;SDS011;59417;44.788;10.334;2022-08-02T10:46:20;2.88;;;1.58;;
28174;SDS011;59417;44.788;10.334;2022-08-02T10:54:26;2.75;;;1.58;;
28174;SDS011;59417;44.788;10.334;2022-08-02T10:57:00;4.60;;;1.73;;
28174;SDS011;59417;44.788;10.334;2022-08-02T10:59:28;3.22;;;1.70;;
28174;SDS011;59417;44.788;10.334;2022-08-02T11:01:56;3.30;;;1.73;;
28174;SDS011;59417;44.788;10.334;2022-08-02T11:07:14;2.47;;;1.80;;
28174;SDS011;59417;44.788;10.334;2022-08-02T11:09:42;3.92;;;1.55;;
28174;SDS011;59417;44.788;10.334;2022-08-02T11:12:10;3.83;;;1.48;;
28174;SDS011;59417;44.788;10.334;2022-08-02T11:14:41;1.67;;;1.55;;
28174;SDS011;59417;44.788;10.334;2022-08-02T11:17:17;5.60;;;1.55;;
28174;SDS011;59417;44.788;10.334;2022-08-02T11:22:40;4.10;;;2.13;;
28174;SDS011;59417;44.788;10.334;2022-08-02T11:25:29;3.10;;;1.50;;
28174;SDS011;59417;44.788;10.334;2022-08-02T11:27:59;2.97;;;1.77;;
28174;SDS011;59417;44.788;10.334;2022-08-02T11:30:35;3.03;;;1.65;;
28174;SDS011;59417;44.788;10.334;2022-08-02T11:33:02;4.50;;;1.55;;
28174;SDS011;59417;44.788;10.334;2022-08-02T11:35:36;2.67;;;1.80;;
28174;SDS011;59417;44.788;10.334;2022-08-02T11:38:18;2.28;;;1.60;;
28174;SDS011;59417;44.788;10.334;2022-08-02T11:40:45;1.50;;;1.40;;
28174;SDS011;59417;44.788;10.334;2022-08-02T11:43:15;2.40;;;1.75;;
28174;SDS011;59417;44.788;10.334;2022-08-02T11:45:45;2.67;;;1.60;;
28174;SDS011;59417;44.788;10.334;2022-08-02T11:48:11;3.08;;;1.60;;
28174;SDS011;59417;44.788;10.334;2022-08-02T11:50:37;2.15;;;1.70;;
28174;SDS011;59417;44.788;10.334;2022-08-02T11:53:12;2.42;;;1.52;;
28174;SDS011;59417;44.788;10.334;2022-08-02T11:55:39;2.30;;;1.63;;
28174;SDS011;59417;44.788;10.334;2022-08-02T11:58:05;2.20;;;1.63;;
28174;SDS011;59417;44.788;10.334;2022-08-02T12:00:38;3.08;;;1.50;;
28174;SDS011;59417;44.788;10.334;2022-08-02T12:03:04;2.13;;;1.75;;
28174;SDS011;59417;44.788;10.334;2022-08-02T12:05:30;3.92;;;2.08;;
28174;SDS011;59417;44.788;10.334;2022-08-02T12:07:56;2.38;;;1.70;;
28174;SDS011;59417;44.788;10.334;2022-08-02T12:10:22;5.25;;;1.70;;
28174;SDS011;59417;44.788;10.334;2022-08-02T12:12:52;2.60;;;1.63;;
28174;SDS011;59417;44.788;10.334;2022-08-02T12:17:54;2.00;;;1.80;;
28174;SDS011;59417;44.788;10.334;2022-08-02T12:20:38;2.85;;;1.92;;
28174;SDS011;59417;44.788;10.334;2022-08-02T12:23:04;4.13;;;1.90;;
28174;SDS011;59417;44.788;10.334;2022-08-02T12:25:29;3.55;;;1.77;;
28174;SDS011;59417;44.788;10.334;2022-08-02T12:28:12;4.93;;;1.83;;
28174;SDS011;59417;44.788;10.334;2022-08-02T12:36:21;8.18;;;1.80;;
28174;SDS011;59417;44.788;10.334;2022-08-02T12:38:51;1.98;;;1.77;;
28174;SDS011;59417;44.788;10.334;2022-08-02T12:41:19;3.28;;;1.60;;
28174;SDS011;59417;44.788;10.334;2022-08-02T12:43:45;3.50;;;1.95;;
28174;SDS011;59417;44.788;10.334;2022-08-02T12:46:15;6.05;;;1.50;;
28174;SDS011;59417;44.788;10.334;2022-08-02T12:48:41;4.15;;;1.85;;
28174;SDS011;59417;44.788;10.334;2022-08-02T12:54:16;2.58;;;1.50;;
28174;SDS011;59417;44.788;10.334;2022-08-02T12:56:45;3.20;;;1.83;;
28174;SDS011;59417;44.788;10.334;2022-08-02T12:59:11;4.47;;;1.90;;
28174;SDS011;59417;44.788;10.334;2022-08-02T13:01:38;1.60;;;1.50;;
28174;SDS011;59417;44.788;10.334;2022-08-02T13:04:03;2.53;;;1.67;;
28174;SDS011;59417;44.788;10.334;2022-08-02T13:06:30;5.75;;;1.52;;
28174;SDS011;59417;44.788;10.334;2022-08-02T13:08:56;2.42;;;1.67;;
28174;SDS011;59417;44.788;10.334;2022-08-02T13:11:28;2.08;;;1.67;;
28174;SDS011;59417;44.788;10.334;2022-08-02T13:16:20;2.17;;;1.73;;
28174;SDS011;59417;44.788;10.334;2022-08-02T13:18:46;2.08;;;1.75;;
28174;SDS011;59417;44.788;10.334;2022-08-02T13:21:11;2.83;;;1.98;;
28174;SDS011;59417;44.788;10.334;2022-08-02T13:23:37;1.70;;;1.60;;
28174;SDS011;59417;44.788;10.334;2022-08-02T13:26:03;2.53;;;1.98;;
28174;SDS011;59417;44.788;10.334;2022-08-02T13:28:29;2.35;;;1.70;;
28174;SDS011;59417;44.788;10.334;2022-08-02T13:30:55;3.13;;;1.90;;
28174;SDS011;59417;44.788;10.334;2022-08-02T13:33:21;2.08;;;1.67;;
28174;SDS011;59417;44.788;10.334;2022-08-02T13:35:48;2.75;;;1.77;;
28174;SDS011;59417;44.788;10.334;2022-08-02T13:38:14;5.20;;;1.85;;
28174;SDS011;59417;44.788;10.334;2022-08-02T13:40:39;7.25;;;1.70;;
28174;SDS011;59417;44.788;10.334;2022-08-02T13:43:24;2.28;;;1.52;;
28174;SDS011;59417;44.788;10.334;2022-08-02T13:45:50;3.92;;;2.13;;
28174;SDS011;59417;44.788;10.334;2022-08-02T13:48:16;1.85;;;1.70;;
28174;SDS011;59417;44.788;10.334;2022-08-02T13:50:41;5.93;;;1.80;;
28174;SDS011;59417;44.788;10.334;2022-08-02T13:53:07;3.05;;;1.42;;
28174;SDS011;59417;44.788;10.334;2022-08-02T13:55:32;2.35;;;1.90;;
28174;SDS011;59417;44.788;10.334;2022-08-02T13:57:59;2.00;;;1.90;;
28174;SDS011;59417;44.788;10.334;2022-08-02T14:00:24;3.40;;;2.00;;
28174;SDS011;59417;44.788;10.334;2022-08-02T14:02:50;2.17;;;1.60;;
28174;SDS011;59417;44.788;10.334;2022-08-02T14:05:16;2.20;;;1.60;;
28174;SDS011;59417;44.788;10.334;2022-08-02T14:07:41;2.80;;;1.85;;
28174;SDS011;59417;44.788;10.334;2022-08-02T14:10:07;3.95;;;2.47;;
28174;SDS011;59417;44.788;10.334;2022-08-02T14:12:33;1.92;;;1.83;;
28174;SDS011;59417;44.788;10.334;2022-08-02T14:14:59;3.53;;;1.58;;
28174;SDS011;59417;44.788;10.334;2022-08-02T14:17:24;5.63;;;2.58;;
28174;SDS011;59417;44.788;10.334;2022-08-02T14:19:50;2.17;;;1.83;;
28174;SDS011;59417;44.788;10.334;2022-08-02T14:22:16;1.70;;;1.55;;
28174;SDS011;59417;44.788;10.334;2022-08-02T14:24:41;2.35;;;1.95;;
28174;SDS011;59417;44.788;10.334;2022-08-02T14:27:07;2.05;;;1.85;;
28174;SDS011;59417;44.788;10.334;2022-08-02T14:29:33;2.00;;;1.80;;
28174;SDS011;59417;44.788;10.334;2022-08-02T14:31:59;2.10;;;1.90;;
28174;SDS011;59417;44.788;10.334;2022-08-02T14:34:26;3.00;;;1.77;;
28174;SDS011;59417;44.788;10.334;2022-08-02T14:36:52;2.75;;;1.88;;
28174;SDS011;59417;44.788;10.334;2022-08-02T14:39:17;2.67;;;1.63;;
28174;SDS011;59417;44.788;10.334;2022-08-02T14:41:43;2.47;;;1.88;;
28174;SDS011;59417;44.788;10.334;2022-08-02T14:44:09;3.58;;;1.75;;
28174;SDS011;59417;44.788;10.334;2022-08-02T14:46:36;2.10;;;1.92;;
28174;SDS011;59417;44.788;10.334;2022-08-02T14:49:05;4.25;;;2.20;;
28174;SDS011;59417;44.788;10.334;2022-08-02T14:51:33;3.03;;;1.90;;
28174;SDS011;59417;44.788;10.334;2022-08-02T14:54:00;1.50;;;1.40;;
28174;SDS011;59417;44.788;10.334;2022-08-02T14:56:27;3.05;;;1.83;;
28174;SDS011;59417;44.788;10.334;2022-08-02T14:58:53;2.58;;;1.73;;
28174;SDS011;59417;44.788;10.334;2022-08-02T15:01:19;1.75;;;1.65;;
28174;SDS011;59417;44.788;10.334;2022-08-02T15:03:45;3.63;;;1.67;;
28174;SDS011;59417;44.788;10.334;2022-08-02T15:06:10;3.35;;;2.10;;
28174;SDS011;59417;44.788;10.334;2022-08-02T15:08:36;2.47;;;1.67;;
28174;SDS011;59417;44.788;10.334;2022-08-02T15:11:02;3.30;;;1.58;;
28174;SDS011;59417;44.788;10.334;2022-08-02T15:13:28;3.15;;;2.03;;
28174;SDS011;59417;44.788;10.334;2022-08-02T15:15:54;3.72;;;1.75;;
28174;SDS011;59417;44.788;10.334;2022-08-02T15:18:20;3.22;;;1.90;;
28174;SDS011;59417;44.788;10.334;2022-08-02T15:20:46;2.47;;;1.65;;
28174;SDS011;59417;44.788;10.334;2022-08-02T15:23:12;2.58;;;2.10;;
28174;SDS011;59417;44.788;10.334;2022-08-02T15:25:38;4.95;;;1.95;;
28174;SDS011;59417;44.788;10.334;2022-08-02T15:28:04;2.05;;;1.80;;
28174;SDS011;59417;44.788;10.334;2022-08-02T15:30:34;2.33;;;1.70;;
28174;SDS011;59417;44.788;10.334;2022-08-02T15:33:01;2.38;;;2.03;;
28174;SDS011;59417;44.788;10.334;2022-08-02T15:35:27;3.17;;;2.00;;